Main page
METAR-TAF:

METAR-TAF

Airports :

Base Aérea de Alcantarilla

Murcia, Spain

latitude: 37-57N, longitude: 001-14W, elevation: 75 m

Current weather observation

The report was made 3 hours and 41 minutes ago, at 18:00 UTC
Wind 7 kt from the South/Southwest, varying between South and Southwest
Temperature 21°C
Humidity 64%
Pressure 1012 hPa
Visibility 10 km or more
no clouds below 1500 m and no cumulonimbus

METAR: LERI 171800Z 20007KT 170V230 CAVOK 21/14 Q1012 NOSIG

Time: 23:41 (21:41 UTC)

Forecast

The report was made 7 hours and 41 minutes ago, at 14:00 UTC
Forecast valid from 17 at 15 UTC to 17 at 24 UTC
Wind 3 kt from the Northwest
Visibility 10 km or more
Few clouds at a height of 4500 ft
Becoming
from 17 at 16 UTC to 17 at 18 UTC
Wind 10 kt from the South/Southeast
Becoming
from 17 at 19 UTC to 17 at 21 UTC
Wind 2 kt from variable directions

TAF: LERI 171400Z 1715/1724 32003KT 9999 FEW045 BECMG 1716/1718 16010KT BECMG 1719/1721 VRB02KT

Weather observations and forecasts of more than 4000 airports (METAR and TAF reports).

The available stations are represented by yellow and red dots on the map.

Hover mouse over dot to see the name of the station.

Then click to see weather observations and forecasts.

To change the map : click on the green buttons with a black cross to zoom in, on the green button with a dash to zoom out, or on the green arrows for adjacent maps.


METAR-TAF: